sensor_id;sensor_type;location;lat;lon;timestamp;temperature;humidity
48208;DHT22;33997;53.278;9.708;2023-03-13T00:00:14;5.80;99.80
48208;DHT22;33997;53.278;9.708;2023-03-13T00:02:41;5.80;99.90
48208;DHT22;33997;53.278;9.708;2023-03-13T00:05:10;5.70;99.80
48208;DHT22;33997;53.278;9.708;2023-03-13T00:07:35;5.70;99.80
48208;DHT22;33997;53.278;9.708;2023-03-13T00:10:01;5.70;99.90
48208;DHT22;33997;53.278;9.708;2023-03-13T00:12:26;5.70;99.90
48208;DHT22;33997;53.278;9.708;2023-03-13T00:14:52;5.80;99.90
48208;DHT22;33997;53.278;9.708;2023-03-13T00:17:17;5.80;99.90
48208;DHT22;33997;53.278;9.708;2023-03-13T00:19:43;5.80;99.90
48208;DHT22;33997;53.278;9.708;2023-03-13T00:22:08;5.80;99.90
48208;DHT22;33997;53.278;9.708;2023-03-13T00:24:33;5.90;99.90
48208;DHT22;33997;53.278;9.708;2023-03-13T00:26:59;5.90;99.90
48208;DHT22;33997;53.278;9.708;2023-03-13T00:29:28;5.90;99.90
48208;DHT22;33997;53.278;9.708;2023-03-13T00:31:53;6.00;99.90
48208;DHT22;33997;53.278;9.708;2023-03-13T00:34:19;6.00;99.90
48208;DHT22;33997;53.278;9.708;2023-03-13T00:36:44;6.00;99.90
48208;DHT22;33997;53.278;9.708;2023-03-13T00:39:10;6.10;99.90
48208;DHT22;33997;53.278;9.708;2023-03-13T00:41:36;6.10;99.90
48208;DHT22;33997;53.278;9.708;2023-03-13T00:44:02;6.10;99.90
48208;DHT22;33997;53.278;9.708;2023-03-13T00:46:29;6.10;99.80
48208;DHT22;33997;53.278;9.708;2023-03-13T00:48:55;6.10;99.80
48208;DHT22;33997;53.278;9.708;2023-03-13T00:51:22;6.10;99.80
48208;DHT22;33997;53.278;9.708;2023-03-13T00:53:48;6.10;99.70
48208;DHT22;33997;53.278;9.708;2023-03-13T00:56:16;6.10;99.70
48208;DHT22;33997;53.278;9.708;2023-03-13T00:58:43;6.10;99.80
48208;DHT22;33997;53.278;9.708;2023-03-13T01:01:13;6.10;99.70
48208;DHT22;33997;53.278;9.708;2023-03-13T01:03:41;6.20;99.80
48208;DHT22;33997;53.278;9.708;2023-03-13T01:06:11;6.20;99.70
48208;DHT22;33997;53.278;9.708;2023-03-13T01:08:36;6.20;99.70
48208;DHT22;33997;53.278;9.708;2023-03-13T01:11:11;6.20;99.70
48208;DHT22;33997;53.278;9.708;2023-03-13T01:13:37;6.20;99.60
48208;DHT22;33997;53.278;9.708;2023-03-13T01:16:06;6.10;99.70
48208;DHT22;33997;53.278;9.708;2023-03-13T01:18:33;6.10;99.70
48208;DHT22;33997;53.278;9.708;2023-03-13T01:20:58;6.10;99.80
48208;DHT22;33997;53.278;9.708;2023-03-13T01:23:25;6.10;99.80
48208;DHT22;33997;53.278;9.708;2023-03-13T01:25:50;6.10;99.80
48208;DHT22;33997;53.278;9.708;2023-03-13T01:28:16;6.10;99.80
48208;DHT22;33997;53.278;9.708;2023-03-13T01:30:41;6.10;99.90
48208;DHT22;33997;53.278;9.708;2023-03-13T01:33:07;6.10;99.90
48208;DHT22;33997;53.278;9.708;2023-03-13T01:35:32;6.10;99.90
48208;DHT22;33997;53.278;9.708;2023-03-13T01:37:58;6.10;99.90
48208;DHT22;33997;53.278;9.708;2023-03-13T01:40:23;6.10;99.90
48208;DHT22;33997;53.278;9.708;2023-03-13T01:42:59;6.10;99.90
48208;DHT22;33997;53.278;9.708;2023-03-13T01:48:21;6.10;99.90
48208;DHT22;33997;53.278;9.708;2023-03-13T01:50:48;6.10;99.90
48208;DHT22;33997;53.278;9.708;2023-03-13T01:53:14;6.10;99.80
48208;DHT22;33997;53.278;9.708;2023-03-13T01:55:40;6.10;99.80
48208;DHT22;33997;53.278;9.708;2023-03-13T01:58:05;6.20;99.90
48208;DHT22;33997;53.278;9.708;2023-03-13T02:00:33;6.20;99.80
48208;DHT22;33997;53.278;9.708;2023-03-13T02:03:05;6.10;99.80
48208;DHT22;33997;53.278;9.708;2023-03-13T02:05:32;6.30;99.90
48208;DHT22;33997;53.278;9.708;2023-03-13T02:08:06;6.30;99.80
48208;DHT22;33997;53.278;9.708;2023-03-13T02:10:37;6.30;99.70
48208;DHT22;33997;53.278;9.708;2023-03-13T02:13:03;6.20;99.70
48208;DHT22;33997;53.278;9.708;2023-03-13T02:15:29;6.20;99.80
48208;DHT22;33997;53.278;9.708;2023-03-13T02:17:56;6.30;99.80
48208;DHT22;33997;53.278;9.708;2023-03-13T02:20:22;6.30;99.90
48208;DHT22;33997;53.278;9.708;2023-03-13T02:23:11;6.30;99.90
48208;DHT22;33997;53.278;9.708;2023-03-13T02:25:48;6.30;99.90
48208;DHT22;33997;53.278;9.708;2023-03-13T02:28:22;6.30;99.90
48208;DHT22;33997;53.278;9.708;2023-03-13T02:30:50;6.40;99.90
48208;DHT22;33997;53.278;9.708;2023-03-13T02:33:17;6.30;99.90
48208;DHT22;33997;53.278;9.708;2023-03-13T02:35:44;6.30;99.90
48208;DHT22;33997;53.278;9.708;2023-03-13T02:38:13;6.30;99.90
48208;DHT22;33997;53.278;9.708;2023-03-13T02:40:43;6.30;99.90
48208;DHT22;33997;53.278;9.708;2023-03-13T02:43:20;6.40;99.90
48208;DHT22;33997;53.278;9.708;2023-03-13T02:46:11;6.40;99.90
48208;DHT22;33997;53.278;9.708;2023-03-13T02:48:40;6.40;99.90
48208;DHT22;33997;53.278;9.708;2023-03-13T02:53:50;6.40;99.90
48208;DHT22;33997;53.278;9.708;2023-03-13T02:56:19;6.40;99.90
48208;DHT22;33997;53.278;9.708;2023-03-13T02:58:45;6.50;99.90
48208;DHT22;33997;53.278;9.708;2023-03-13T03:01:10;6.50;99.90
48208;DHT22;33997;53.278;9.708;2023-03-13T03:03:36;6.50;99.90
48208;DHT22;33997;53.278;9.708;2023-03-13T03:06:03;6.50;99.90
48208;DHT22;33997;53.278;9.708;2023-03-13T03:08:28;6.50;99.90
48208;DHT22;33997;53.278;9.708;2023-03-13T03:10:54;6.50;99.90
48208;DHT22;33997;53.278;9.708;2023-03-13T03:13:20;6.50;99.90
48208;DHT22;33997;53.278;9.708;2023-03-13T03:15:45;6.50;99.90
48208;DHT22;33997;53.278;9.708;2023-03-13T03:18:10;6.50;99.90
48208;DHT22;33997;53.278;9.708;2023-03-13T03:20:36;6.50;99.90
48208;DHT22;33997;53.278;9.708;2023-03-13T03:23:01;6.50;99.90
48208;DHT22;33997;53.278;9.708;2023-03-13T03:25:27;6.60;99.90
48208;DHT22;33997;53.278;9.708;2023-03-13T03:27:52;6.60;99.90
48208;DHT22;33997;53.278;9.708;2023-03-13T03:30:18;6.50;99.90
48208;DHT22;33997;53.278;9.708;2023-03-13T03:32:43;6.50;99.90
48208;DHT22;33997;53.278;9.708;2023-03-13T03:35:09;6.50;99.90
48208;DHT22;33997;53.278;9.708;2023-03-13T03:37:34;6.50;99.90
48208;DHT22;33997;53.278;9.708;2023-03-13T03:40:00;6.50;99.90
48208;DHT22;33997;53.278;9.708;2023-03-13T03:42:25;6.50;99.90
48208;DHT22;33997;53.278;9.708;2023-03-13T03:44:51;6.60;99.90
48208;DHT22;33997;53.278;9.708;2023-03-13T03:47:16;6.50;99.90
48208;DHT22;33997;53.278;9.708;2023-03-13T03:49:41;6.50;99.90
48208;DHT22;33997;53.278;9.708;2023-03-13T03:52:07;6.50;99.90
48208;DHT22;33997;53.278;9.708;2023-03-13T03:54:32;6.50;99.90
48208;DHT22;33997;53.278;9.708;2023-03-13T03:56:59;6.50;99.90
48208;DHT22;33997;53.278;9.708;2023-03-13T03:59:25;6.50;99.90
48208;DHT22;33997;53.278;9.708;2023-03-13T04:01:50;6.50;99.90
48208;DHT22;33997;53.278;9.708;2023-03-13T04:04:16;6.50;99.90
48208;DHT22;33997;53.278;9.708;2023-03-13T04:06:41;6.60;99.90
48208;DHT22;33997;53.278;9.708;2023-03-13T04:09:07;6.50;99.90
48208;DHT22;33997;53.278;9.708;2023-03-13T04:11:32;6.60;99.90
48208;DHT22;33997;53.278;9.708;2023-03-13T04:13:58;6.60;99.90
48208;DHT22;33997;53.278;9.708;2023-03-13T04:16:23;6.60;99.90
48208;DHT22;33997;53.278;9.708;2023-03-13T04:18:49;6.60;99.90
48208;DHT22;33997;53.278;9.708;2023-03-13T04:21:14;6.60;99.90
48208;DHT22;33997;53.278;9.708;2023-03-13T04:23:40;6.60;99.90
48208;DHT22;33997;53.278;9.708;2023-03-13T04:26:05;6.60;99.90
48208;DHT22;33997;53.278;9.708;2023-03-13T04:28:30;6.70;99.90
48208;DHT22;33997;53.278;9.708;2023-03-13T04:30:56;6.60;99.90
48208;DHT22;33997;53.278;9.708;2023-03-13T04:33:23;6.60;99.90
48208;DHT22;33997;53.278;9.708;2023-03-13T04:35:49;6.60;99.90
48208;DHT22;33997;53.278;9.708;2023-03-13T04:38:14;6.60;99.90
48208;DHT22;33997;53.278;9.708;2023-03-13T04:40:40;6.60;99.90
48208;DHT22;33997;53.278;9.708;2023-03-13T04:43:07;6.60;99.90
48208;DHT22;33997;53.278;9.708;2023-03-13T04:45:33;6.60;99.90
48208;DHT22;33997;53.278;9.708;2023-03-13T04:47:58;6.60;99.90
48208;DHT22;33997;53.278;9.708;2023-03-13T04:50:24;6.60;99.90
48208;DHT22;33997;53.278;9.708;2023-03-13T04:52:49;6.70;99.90
48208;DHT22;33997;53.278;9.708;2023-03-13T04:55:15;6.60;99.90
48208;DHT22;33997;53.278;9.708;2023-03-13T04:57:40;6.70;99.90
48208;DHT22;33997;53.278;9.708;2023-03-13T05:00:07;6.60;99.90
48208;DHT22;33997;53.278;9.708;2023-03-13T05:02:33;6.70;99.90
48208;DHT22;33997;53.278;9.708;2023-03-13T05:04:58;6.80;99.90
48208;DHT22;33997;53.278;9.708;2023-03-13T05:07:24;6.80;99.90
48208;DHT22;33997;53.278;9.708;2023-03-13T05:09:49;6.80;99.90
48208;DHT22;33997;53.278;9.708;2023-03-13T05:12:15;6.80;99.90
48208;DHT22;33997;53.278;9.708;2023-03-13T05:14:40;6.80;99.90
48208;DHT22;33997;53.278;9.708;2023-03-13T05:17:06;6.80;99.90
48208;DHT22;33997;53.278;9.708;2023-03-13T05:19:31;6.80;99.90
48208;DHT22;33997;53.278;9.708;2023-03-13T05:21:57;6.90;99.90
48208;DHT22;33997;53.278;9.708;2023-03-13T05:24:22;6.80;99.90
48208;DHT22;33997;53.278;9.708;2023-03-13T05:26:48;6.90;99.90
48208;DHT22;33997;53.278;9.708;2023-03-13T05:29:13;6.90;99.90
48208;DHT22;33997;53.278;9.708;2023-03-13T05:31:38;6.90;99.90
48208;DHT22;33997;53.278;9.708;2023-03-13T05:34:04;6.90;99.90
48208;DHT22;33997;53.278;9.708;2023-03-13T05:36:29;7.00;99.90
48208;DHT22;33997;53.278;9.708;2023-03-13T05:38:55;7.10;99.90
48208;DHT22;33997;53.278;9.708;2023-03-13T05:41:20;7.10;99.90
48208;DHT22;33997;53.278;9.708;2023-03-13T05:43:46;7.10;99.90
48208;DHT22;33997;53.278;9.708;2023-03-13T05:46:11;7.10;99.90
48208;DHT22;33997;53.278;9.708;2023-03-13T05:48:37;7.10;99.90
48208;DHT22;33997;53.278;9.708;2023-03-13T05:51:02;7.20;99.90
48208;DHT22;33997;53.278;9.708;2023-03-13T05:53:28;7.20;99.90
48208;DHT22;33997;53.278;9.708;2023-03-13T05:55:53;7.20;99.90
48208;DHT22;33997;53.278;9.708;2023-03-13T05:58:18;7.30;99.90
48208;DHT22;33997;53.278;9.708;2023-03-13T06:00:44;7.20;99.90
48208;DHT22;33997;53.278;9.708;2023-03-13T06:03:09;7.30;99.90
48208;DHT22;33997;53.278;9.708;2023-03-13T06:05:35;7.30;99.90
48208;DHT22;33997;53.278;9.708;2023-03-13T06:08:00;7.30;99.90
48208;DHT22;33997;53.278;9.708;2023-03-13T06:10:27;7.40;99.90
48208;DHT22;33997;53.278;9.708;2023-03-13T06:12:55;7.50;99.90
48208;DHT22;33997;53.278;9.708;2023-03-13T06:15:22;7.40;99.90
48208;DHT22;33997;53.278;9.708;2023-03-13T06:17:48;7.50;99.90
48208;DHT22;33997;53.278;9.708;2023-03-13T06:20:13;7.40;99.90
48208;DHT22;33997;53.278;9.708;2023-03-13T06:22:40;7.50;99.90
48208;DHT22;33997;53.278;9.708;2023-03-13T06:25:06;7.40;99.90
48208;DHT22;33997;53.278;9.708;2023-03-13T06:27:31;7.50;99.90
48208;DHT22;33997;53.278;9.708;2023-03-13T06:29:57;7.50;99.90
48208;DHT22;33997;53.278;9.708;2023-03-13T06:32:22;7.60;99.90
48208;DHT22;33997;53.278;9.708;2023-03-13T06:34:47;7.60;99.90
48208;DHT22;33997;53.278;9.708;2023-03-13T06:37:13;7.60;99.90
48208;DHT22;33997;53.278;9.708;2023-03-13T06:39:38;7.70;99.90
48208;DHT22;33997;53.278;9.708;2023-03-13T06:42:04;7.70;99.90
48208;DHT22;33997;53.278;9.708;2023-03-13T06:44:30;7.80;99.90
48208;DHT22;33997;53.278;9.708;2023-03-13T06:46:55;7.90;99.90
48208;DHT22;33997;53.278;9.708;2023-03-13T06:49:21;7.90;99.90
48208;DHT22;33997;53.278;9.708;2023-03-13T06:51:46;8.00;99.90
48208;DHT22;33997;53.278;9.708;2023-03-13T06:54:12;8.00;99.90
48208;DHT22;33997;53.278;9.708;2023-03-13T06:56:37;8.10;99.90
48208;DHT22;33997;53.278;9.708;2023-03-13T06:59:03;8.20;99.90
48208;DHT22;33997;53.278;9.708;2023-03-13T07:01:28;8.30;99.90
48208;DHT22;33997;53.278;9.708;2023-03-13T07:03:54;8.30;99.90
48208;DHT22;33997;53.278;9.708;2023-03-13T07:06:19;8.40;99.90
48208;DHT22;33997;53.278;9.708;2023-03-13T07:08:45;8.40;99.90
48208;DHT22;33997;53.278;9.708;2023-03-13T07:11:12;8.60;99.90
48208;DHT22;33997;53.278;9.708;2023-03-13T07:13:38;8.50;99.90
48208;DHT22;33997;53.278;9.708;2023-03-13T07:16:07;8.60;99.90
48208;DHT22;33997;53.278;9.708;2023-03-13T07:18:33;8.60;99.90
48208;DHT22;33997;53.278;9.708;2023-03-13T07:21:00;8.70;99.90
48208;DHT22;33997;53.278;9.708;2023-03-13T07:23:27;8.80;99.90
48208;DHT22;33997;53.278;9.708;2023-03-13T07:25:57;8.90;99.90
48208;DHT22;33997;53.278;9.708;2023-03-13T07:28:24;8.90;99.90
48208;DHT22;33997;53.278;9.708;2023-03-13T07:30:50;9.00;99.90
48208;DHT22;33997;53.278;9.708;2023-03-13T07:33:16;9.00;99.90
48208;DHT22;33997;53.278;9.708;2023-03-13T07:35:49;9.10;99.90
48208;DHT22;33997;53.278;9.708;2023-03-13T07:38:15;9.10;99.90
48208;DHT22;33997;53.278;9.708;2023-03-13T07:40:47;9.20;99.90
48208;DHT22;33997;53.278;9.708;2023-03-13T07:43:13;9.30;99.90
48208;DHT22;33997;53.278;9.708;2023-03-13T07:45:38;9.30;99.90
48208;DHT22;33997;53.278;9.708;2023-03-13T07:48:04;9.40;99.90
48208;DHT22;33997;53.278;9.708;2023-03-13T07:50:30;9.40;99.90
48208;DHT22;33997;53.278;9.708;2023-03-13T07:52:55;9.50;99.90
48208;DHT22;33997;53.278;9.708;2023-03-13T07:55:20;9.60;99.90
48208;DHT22;33997;53.278;9.708;2023-03-13T07:57:46;9.70;99.90
48208;DHT22;33997;53.278;9.708;2023-03-13T08:00:12;9.80;99.90
48208;DHT22;33997;53.278;9.708;2023-03-13T08:02:40;9.70;99.90
48208;DHT22;33997;53.278;9.708;2023-03-13T08:05:06;9.90;99.90
48208;DHT22;33997;53.278;9.708;2023-03-13T08:07:31;9.90;99.90
48208;DHT22;33997;53.278;9.708;2023-03-13T08:09:57;10.00;99.90
48208;DHT22;33997;53.278;9.708;2023-03-13T08:12:22;10.00;99.90
48208;DHT22;33997;53.278;9.708;2023-03-13T08:14:48;10.10;99.90
48208;DHT22;33997;53.278;9.708;2023-03-13T08:17:13;10.10;99.90
48208;DHT22;33997;53.278;9.708;2023-03-13T08:19:39;10.10;99.90
48208;DHT22;33997;53.278;9.708;2023-03-13T08:22:04;10.20;99.90
48208;DHT22;33997;53.278;9.708;2023-03-13T08:24:30;10.20;99.90
48208;DHT22;33997;53.278;9.708;2023-03-13T08:26:55;10.30;99.90
48208;DHT22;33997;53.278;9.708;2023-03-13T08:29:21;10.30;99.90
48208;DHT22;33997;53.278;9.708;2023-03-13T08:31:48;10.40;99.90
48208;DHT22;33997;53.278;9.708;2023-03-13T08:34:15;10.40;99.90
48208;DHT22;33997;53.278;9.708;2023-03-13T08:36:41;10.50;99.90
48208;DHT22;33997;53.278;9.708;2023-03-13T08:39:14;10.50;99.90
48208;DHT22;33997;53.278;9.708;2023-03-13T08:41:40;10.50;99.90
48208;DHT22;33997;53.278;9.708;2023-03-13T08:44:07;10.60;99.90
48208;DHT22;33997;53.278;9.708;2023-03-13T08:46:34;10.60;99.90
48208;DHT22;33997;53.278;9.708;2023-03-13T08:49:01;10.70;99.90
48208;DHT22;33997;53.278;9.708;2023-03-13T08:51:28;10.70;99.90
48208;DHT22;33997;53.278;9.708;2023-03-13T08:53:54;10.70;99.90
48208;DHT22;33997;53.278;9.708;2023-03-13T08:56:22;10.80;99.90
48208;DHT22;33997;53.278;9.708;2023-03-13T08:58:53;10.80;99.90
48208;DHT22;33997;53.278;9.708;2023-03-13T09:01:20;10.80;99.90
48208;DHT22;33997;53.278;9.708;2023-03-13T09:03:46;10.80;99.90
48208;DHT22;33997;53.278;9.708;2023-03-13T09:06:11;10.80;99.90
48208;DHT22;33997;53.278;9.708;2023-03-13T09:08:38;10.80;99.90
48208;DHT22;33997;53.278;9.708;2023-03-13T09:11:09;10.90;99.90
48208;DHT22;33997;53.278;9.708;2023-03-13T09:13:38;10.80;99.90
48208;DHT22;33997;53.278;9.708;2023-03-13T09:16:09;10.90;99.90
48208;DHT22;33997;53.278;9.708;2023-03-13T09:18:35;10.90;99.90
48208;DHT22;33997;53.278;9.708;2023-03-13T09:21:02;10.90;99.90
48208;DHT22;33997;53.278;9.708;2023-03-13T09:23:28;11.00;99.90
48208;DHT22;33997;53.278;9.708;2023-03-13T09:25:55;11.00;99.90
48208;DHT22;33997;53.278;9.708;2023-03-13T09:28:24;10.90;99.90
48208;DHT22;33997;53.278;9.708;2023-03-13T09:30:50;11.00;99.90
48208;DHT22;33997;53.278;9.708;2023-03-13T09:33:17;11.00;99.90
48208;DHT22;33997;53.278;9.708;2023-03-13T09:35:43;11.00;99.90
48208;DHT22;33997;53.278;9.708;2023-03-13T09:38:15;11.00;99.90
48208;DHT22;33997;53.278;9.708;2023-03-13T09:40:44;11.10;99.90
48208;DHT22;33997;53.278;9.708;2023-03-13T09:46:00;11.20;99.90
48208;DHT22;33997;53.278;9.708;2023-03-13T09:48:32;11.30;99.90
48208;DHT22;33997;53.278;9.708;2023-03-13T09:53:41;11.40;99.90
48208;DHT22;33997;53.278;9.708;2023-03-13T09:56:14;11.40;99.90
48208;DHT22;33997;53.278;9.708;2023-03-13T09:58:46;11.40;99.90
48208;DHT22;33997;53.278;9.708;2023-03-13T10:01:16;11.30;99.90
48208;DHT22;33997;53.278;9.708;2023-03-13T10:06:35;11.30;99.90
48208;DHT22;33997;53.278;9.708;2023-03-13T10:09:04;11.30;99.90
48208;DHT22;33997;53.278;9.708;2023-03-13T10:11:43;11.30;99.90
48208;DHT22;33997;53.278;9.708;2023-03-13T10:14:26;11.30;99.90
48208;DHT22;33997;53.278;9.708;2023-03-13T10:17:04;11.30;99.90
48208;DHT22;33997;53.278;9.708;2023-03-13T10:19:39;11.30;99.90
48208;DHT22;33997;53.278;9.708;2023-03-13T10:22:18;11.40;99.90
48208;DHT22;33997;53.278;9.708;2023-03-13T10:27:49;11.50;99.90
48208;DHT22;33997;53.278;9.708;2023-03-13T10:30:25;11.70;99.90
48208;DHT22;33997;53.278;9.708;2023-03-13T10:33:18;11.90;99.80
48208;DHT22;33997;53.278;9.708;2023-03-13T10:35:44;12.00;99.50
48208;DHT22;33997;53.278;9.708;2023-03-13T10:38:18;12.10;99.40
48208;DHT22;33997;53.278;9.708;2023-03-13T10:40:59;12.10;99.10
48208;DHT22;33997;53.278;9.708;2023-03-13T10:43:27;12.10;98.60
48208;DHT22;33997;53.278;9.708;2023-03-13T10:45:53;12.20;98.40
48208;DHT22;33997;53.278;9.708;2023-03-13T10:48:22;12.40;97.80
48208;DHT22;33997;53.278;9.708;2023-03-13T10:50:50;12.50;97.60
48208;DHT22;33997;53.278;9.708;2023-03-13T10:55:54;12.30;97.40
48208;DHT22;33997;53.278;9.708;2023-03-13T10:58:29;12.30;97.50
48208;DHT22;33997;53.278;9.708;2023-03-13T11:03:47;12.30;97.50
48208;DHT22;33997;53.278;9.708;2023-03-13T11:06:27;12.30;97.10
48208;DHT22;33997;53.278;9.708;2023-03-13T11:09:14;12.40;96.90
48208;DHT22;33997;53.278;9.708;2023-03-13T11:14:23;12.40;96.80
48208;DHT22;33997;53.278;9.708;2023-03-13T11:17:17;12.40;96.90
48208;DHT22;33997;53.278;9.708;2023-03-13T11:19:58;12.60;96.00
48208;DHT22;33997;53.278;9.708;2023-03-13T11:25:24;12.70;95.40
48208;DHT22;33997;53.278;9.708;2023-03-13T11:28:08;12.80;94.00
48208;DHT22;33997;53.278;9.708;2023-03-13T11:30:45;12.80;94.30
48208;DHT22;33997;53.278;9.708;2023-03-13T11:36:12;13.00;94.20
48208;DHT22;33997;53.278;9.708;2023-03-13T11:38:41;13.00;94.20
48208;DHT22;33997;53.278;9.708;2023-03-13T11:42:19;12.90;94.90
48208;DHT22;33997;53.278;9.708;2023-03-13T11:47:35;13.30;93.80
48208;DHT22;33997;53.278;9.708;2023-03-13T11:50:29;13.70;91.80
48208;DHT22;33997;53.278;9.708;2023-03-13T11:53:20;13.90;91.10
48208;DHT22;33997;53.278;9.708;2023-03-13T11:58:44;14.20;90.30
48208;DHT22;33997;53.278;9.708;2023-03-13T12:01:18;14.20;88.30
48208;DHT22;33997;53.278;9.708;2023-03-13T12:09:05;14.60;87.40
48208;DHT22;33997;53.278;9.708;2023-03-13T12:14:46;15.00;84.60
48208;DHT22;33997;53.278;9.708;2023-03-13T12:17:27;15.10;82.90
48208;DHT22;33997;53.278;9.708;2023-03-13T12:22:41;15.30;78.20
48208;DHT22;33997;53.278;9.708;2023-03-13T12:25:23;15.40;79.20
48208;DHT22;33997;53.278;9.708;2023-03-13T12:28:03;15.80;79.70
48208;DHT22;33997;53.278;9.708;2023-03-13T12:36:37;15.90;77.90
48208;DHT22;33997;53.278;9.708;2023-03-13T12:39:29;16.00;77.40
48208;DHT22;33997;53.278;9.708;2023-03-13T12:42:16;16.30;74.60
48208;DHT22;33997;53.278;9.708;2023-03-13T12:44:44;15.80;75.10
48208;DHT22;33997;53.278;9.708;2023-03-13T12:47:29;15.60;75.50
48208;DHT22;33997;53.278;9.708;2023-03-13T12:50:23;15.80;74.20
48208;DHT22;33997;53.278;9.708;2023-03-13T12:56:03;16.40;71.90
48208;DHT22;33997;53.278;9.708;2023-03-13T12:58:42;16.00;72.50
48208;DHT22;33997;53.278;9.708;2023-03-13T13:01:19;16.40;73.20
48208;DHT22;33997;53.278;9.708;2023-03-13T13:06:20;16.00;72.20
48208;DHT22;33997;53.278;9.708;2023-03-13T13:11:44;16.70;69.90
48208;DHT22;33997;53.278;9.708;2023-03-13T13:16:49;15.80;70.80
48208;DHT22;33997;53.278;9.708;2023-03-13T13:32:55;16.80;68.50
48208;DHT22;33997;53.278;9.708;2023-03-13T13:35:28;17.00;68.50
48208;DHT22;33997;53.278;9.708;2023-03-13T13:38:25;17.30;67.70
48208;DHT22;33997;53.278;9.708;2023-03-13T13:43:40;17.50;66.50
48208;DHT22;33997;53.278;9.708;2023-03-13T13:46:35;17.50;66.40
48208;DHT22;33997;53.278;9.708;2023-03-13T13:51:30;16.30;69.50
48208;DHT22;33997;53.278;9.708;2023-03-13T13:53:59;16.10;71.00
48208;DHT22;33997;53.278;9.708;2023-03-13T13:56:34;16.20;70.70
48208;DHT22;33997;53.278;9.708;2023-03-13T14:01:46;16.50;70.20
48208;DHT22;33997;53.278;9.708;2023-03-13T14:04:28;17.00;68.60
48208;DHT22;33997;53.278;9.708;2023-03-13T14:07:00;16.80;69.40
48208;DHT22;33997;53.278;9.708;2023-03-13T14:09:31;16.40;71.00
48208;DHT22;33997;53.278;9.708;2023-03-13T14:11:58;16.10;70.30
48208;DHT22;33997;53.278;9.708;2023-03-13T14:14:23;16.10;72.10
48208;DHT22;33997;53.278;9.708;2023-03-13T14:16:54;16.00;70.40
48208;DHT22;33997;53.278;9.708;2023-03-13T14:19:28;16.50;69.80
48208;DHT22;33997;53.278;9.708;2023-03-13T14:22:21;16.90;67.30
48208;DHT22;33997;53.278;9.708;2023-03-13T14:24:56;16.50;67.60
48208;DHT22;33997;53.278;9.708;2023-03-13T14:27:22;16.80;67.00
48208;DHT22;33997;53.278;9.708;2023-03-13T14:30:03;16.80;66.60
48208;DHT22;33997;53.278;9.708;2023-03-13T14:32:30;17.50;64.50
48208;DHT22;33997;53.278;9.708;2023-03-13T14:34:55;17.40;64.70
48208;DHT22;33997;53.278;9.708;2023-03-13T14:37:51;16.70;64.80
48208;DHT22;33997;53.278;9.708;2023-03-13T14:42:47;16.20;68.30
48208;DHT22;33997;53.278;9.708;2023-03-13T14:45:30;16.20;68.80
48208;DHT22;33997;53.278;9.708;2023-03-13T14:48:18;16.80;66.60
48208;DHT22;33997;53.278;9.708;2023-03-13T14:50:45;17.50;66.60
48208;DHT22;33997;53.278;9.708;2023-03-13T14:53:13;16.90;66.20
48208;DHT22;33997;53.278;9.708;2023-03-13T14:55:41;17.00;66.90
48208;DHT22;33997;53.278;9.708;2023-03-13T15:00:48;16.40;68.10
48208;DHT22;33997;53.278;9.708;2023-03-13T15:08:20;16.20;69.30
48208;DHT22;33997;53.278;9.708;2023-03-13T15:10:46;16.70;67.50
48208;DHT22;33997;53.278;9.708;2023-03-13T15:13:27;17.10;66.00
48208;DHT22;33997;53.278;9.708;2023-03-13T15:15:57;16.60;67.40
48208;DHT22;33997;53.278;9.708;2023-03-13T15:18:25;16.40;68.00
48208;DHT22;33997;53.278;9.708;2023-03-13T15:20:56;16.20;69.20
48208;DHT22;33997;53.278;9.708;2023-03-13T15:23:23;16.60;69.30
48208;DHT22;33997;53.278;9.708;2023-03-13T15:25:49;16.60;69.50
48208;DHT22;33997;53.278;9.708;2023-03-13T15:28:22;16.40;69.80
48208;DHT22;33997;53.278;9.708;2023-03-13T15:30:49;16.90;67.20
48208;DHT22;33997;53.278;9.708;2023-03-13T15:33:18;17.40;64.50
48208;DHT22;33997;53.278;9.708;2023-03-13T15:35:45;16.80;66.10
48208;DHT22;33997;53.278;9.708;2023-03-13T15:38:14;16.50;67.60
48208;DHT22;33997;53.278;9.708;2023-03-13T15:40:40;16.50;67.60
48208;DHT22;33997;53.278;9.708;2023-03-13T15:43:06;16.60;67.80
48208;DHT22;33997;53.278;9.708;2023-03-13T15:45:32;17.00;66.10
48208;DHT22;33997;53.278;9.708;2023-03-13T15:48:04;17.20;65.40
48208;DHT22;33997;53.278;9.708;2023-03-13T15:50:36;16.60;66.30
48208;DHT22;33997;53.278;9.708;2023-03-13T15:53:01;16.40;66.90
48208;DHT22;33997;53.278;9.708;2023-03-13T15:55:28;16.20;67.80
48208;DHT22;33997;53.278;9.708;2023-03-13T15:57:54;16.00;67.70
48208;DHT22;33997;53.278;9.708;2023-03-13T16:00:22;15.90;68.50
48208;DHT22;33997;53.278;9.708;2023-03-13T16:02:48;15.80;68.20
48208;DHT22;33997;53.278;9.708;2023-03-13T16:05:14;15.70;69.50
48208;DHT22;33997;53.278;9.708;2023-03-13T16:07:39;15.60;69.90
48208;DHT22;33997;53.278;9.708;2023-03-13T16:10:16;15.60;70.00
48208;DHT22;33997;53.278;9.708;2023-03-13T16:12:41;15.60;69.20
48208;DHT22;33997;53.278;9.708;2023-03-13T16:15:07;15.60;69.60
48208;DHT22;33997;53.278;9.708;2023-03-13T16:17:33;15.50;70.80
48208;DHT22;33997;53.278;9.708;2023-03-13T16:19:58;15.50;70.10
48208;DHT22;33997;53.278;9.708;2023-03-13T16:22:24;15.30;71.10
48208;DHT22;33997;53.278;9.708;2023-03-13T16:24:49;15.30;70.40
48208;DHT22;33997;53.278;9.708;2023-03-13T16:27:16;15.30;70.20
48208;DHT22;33997;53.278;9.708;2023-03-13T16:29:43;15.10;71.50
48208;DHT22;33997;53.278;9.708;2023-03-13T16:32:15;15.10;70.80
48208;DHT22;33997;53.278;9.708;2023-03-13T16:34:41;15.10;71.20
48208;DHT22;33997;53.278;9.708;2023-03-13T16:37:15;15.00;71.40
48208;DHT22;33997;53.278;9.708;2023-03-13T16:39:42;15.10;71.40
48208;DHT22;33997;53.278;9.708;2023-03-13T16:42:07;15.10;70.90
48208;DHT22;33997;53.278;9.708;2023-03-13T16:44:33;15.10;71.50
48208;DHT22;33997;53.278;9.708;2023-03-13T16:46:58;15.00;72.10
48208;DHT22;33997;53.278;9.708;2023-03-13T16:49:24;15.00;71.90
48208;DHT22;33997;53.278;9.708;2023-03-13T16:51:49;15.10;71.80
48208;DHT22;33997;53.278;9.708;2023-03-13T16:54:15;15.10;70.70
48208;DHT22;33997;53.278;9.708;2023-03-13T16:56:41;15.10;70.70
48208;DHT22;33997;53.278;9.708;2023-03-13T16:59:17;15.00;71.10
48208;DHT22;33997;53.278;9.708;2023-03-13T17:01:44;15.00;70.90
48208;DHT22;33997;53.278;9.708;2023-03-13T17:04:11;14.90;70.90
48208;DHT22;33997;53.278;9.708;2023-03-13T17:06:39;14.80;71.70
48208;DHT22;33997;53.278;9.708;2023-03-13T17:09:12;14.60;72.00
48208;DHT22;33997;53.278;9.708;2023-03-13T17:11:38;14.60;72.20
48208;DHT22;33997;53.278;9.708;2023-03-13T17:14:03;14.60;71.80
48208;DHT22;33997;53.278;9.708;2023-03-13T17:16:31;14.60;72.20
48208;DHT22;33997;53.278;9.708;2023-03-13T17:18:57;14.50;72.40
48208;DHT22;33997;53.278;9.708;2023-03-13T17:21:26;14.50;72.30
48208;DHT22;33997;53.278;9.708;2023-03-13T17:23:53;14.50;71.70